createdAt,value
2022-09-20T00:00:22.140Z,1010.25
2022-09-20T00:01:22.344Z,1010.25
2022-09-20T00:02:22.148Z,1010.27
2022-09-20T00:03:22.179Z,1010.24
2022-09-20T00:04:22.166Z,1010.26
2022-09-20T00:05:22.365Z,1010.27
2022-09-20T00:06:22.164Z,1010.21
2022-09-20T00:07:22.172Z,1010.26
2022-09-20T00:08:22.139Z,1010.24
2022-09-20T00:09:22.141Z,1010.28
2022-09-20T00:10:22.130Z,1010.3
2022-09-20T00:11:22.151Z,1010.31
2022-09-20T00:12:22.170Z,1010.29
2022-09-20T00:13:22.158Z,1010.28
2022-09-20T00:14:22.190Z,1010.28
2022-09-20T00:15:22.131Z,1010.28
2022-09-20T00:16:22.195Z,1010.29
2022-09-20T00:17:22.144Z,1010.27
2022-09-20T00:18:22.196Z,1010.24
2022-09-20T00:19:22.140Z,1010.27
2022-09-20T00:20:22.141Z,1010.28
2022-09-20T00:21:22.130Z,1010.27
2022-09-20T00:22:22.261Z,1010.26
2022-09-20T00:23:22.154Z,1010.26
2022-09-20T00:24:22.145Z,1010.25
2022-09-20T00:25:22.132Z,1010.24
2022-09-20T00:26:22.270Z,1010.24
2022-09-20T00:27:22.246Z,1010.29
2022-09-20T00:28:22.395Z,1010.28
2022-09-20T00:29:22.680Z,1010.31
2022-09-20T00:30:22.190Z,1010.28
2022-09-20T00:31:22.347Z,1010.32
2022-09-20T00:32:22.529Z,1010.33
2022-09-20T00:33:22.227Z,1010.32
2022-09-20T00:34:22.538Z,1010.31
2022-09-20T00:35:22.352Z,1010.32
2022-09-20T00:36:22.731Z,1010.32
2022-09-20T00:37:22.421Z,1010.31
2022-09-20T00:38:22.291Z,1010.35
2022-09-20T00:39:22.892Z,1010.34
2022-09-20T00:40:23.297Z,1010.35
2022-09-20T00:41:23.144Z,1010.35
2022-09-20T00:42:22.210Z,1010.34
2022-09-20T00:43:22.132Z,1010.35
2022-09-20T00:44:22.432Z,1010.36
2022-09-20T00:45:22.165Z,1010.35
2022-09-20T00:46:22.216Z,1010.37
2022-09-20T00:47:22.144Z,1010.36
2022-09-20T00:48:22.140Z,1010.32
2022-09-20T00:49:22.237Z,1010.36
2022-09-20T00:50:22.150Z,1010.37
2022-09-20T00:51:22.182Z,1010.38
2022-09-20T00:52:22.138Z,1010.4
2022-09-20T00:53:22.144Z,1010.39
2022-09-20T00:54:23.134Z,1010.41
2022-09-20T00:55:22.151Z,1010.45
2022-09-20T00:56:22.144Z,1010.41
2022-09-20T00:57:22.151Z,1010.42
2022-09-20T00:58:22.151Z,1010.44
2022-09-20T00:59:22.175Z,1010.42
2022-09-20T01:00:22.142Z,1010.48
2022-09-20T01:01:22.225Z,1010.45
2022-09-20T01:02:22.226Z,1010.44
2022-09-20T01:03:22.136Z,1010.43
2022-09-20T01:04:22.147Z,1010.47
2022-09-20T01:05:22.136Z,1010.42
2022-09-20T01:06:22.155Z,1010.47
2022-09-20T01:07:22.143Z,1010.4
2022-09-20T01:08:22.147Z,1010.42
2022-09-20T01:09:22.278Z,1010.41
2022-09-20T01:10:22.139Z,1010.46
2022-09-20T01:11:22.178Z,1010.43
2022-09-20T01:12:22.192Z,1010.45
2022-09-20T01:13:22.143Z,1010.42
2022-09-20T01:14:22.142Z,1010.4
2022-09-20T01:15:22.130Z,1010.43
2022-09-20T01:16:22.219Z,1010.44
2022-09-20T01:17:22.119Z,1010.44
2022-09-20T01:18:22.152Z,1010.41
2022-09-20T01:19:22.169Z,1010.44
2022-09-20T01:20:22.231Z,1010.46
2022-09-20T01:21:22.259Z,1010.44
2022-09-20T01:22:22.154Z,1010.44
2022-09-20T01:23:22.146Z,1010.46
2022-09-20T01:24:22.212Z,1010.45
2022-09-20T01:25:22.142Z,1010.45
2022-09-20T01:26:22.133Z,1010.44
2022-09-20T01:27:22.149Z,1010.44
2022-09-20T01:28:22.124Z,1010.45
2022-09-20T01:29:22.404Z,1010.44
2022-09-20T01:30:22.144Z,1010.47
2022-09-20T01:31:22.367Z,1010.49
2022-09-20T01:32:22.317Z,1010.49
2022-09-20T01:33:22.133Z,1010.48
2022-09-20T01:34:22.198Z,1010.45
2022-09-20T01:35:22.207Z,1010.5
2022-09-20T01:36:22.237Z,1010.45
2022-09-20T01:37:22.185Z,1010.48
2022-09-20T01:38:22.132Z,1010.46
2022-09-20T01:39:22.407Z,1010.47
2022-09-20T01:40:22.210Z,1010.47
2022-09-20T01:41:22.151Z,1010.45
2022-09-20T01:42:22.139Z,1010.47
2022-09-20T01:43:22.148Z,1010.47
2022-09-20T01:44:22.153Z,1010.48
2022-09-20T01:45:22.138Z,1010.45
2022-09-20T01:46:22.196Z,1010.43
2022-09-20T01:47:22.204Z,1010.41
2022-09-20T01:48:22.118Z,1010.41
2022-09-20T01:49:22.235Z,1010.38
2022-09-20T01:50:22.114Z,1010.42
2022-09-20T01:51:22.147Z,1010.38
2022-09-20T01:52:22.423Z,1010.39
2022-09-20T01:53:22.399Z,1010.43
2022-09-20T01:54:22.198Z,1010.41
2022-09-20T01:55:22.139Z,1010.41
2022-09-20T01:56:22.436Z,1010.4
2022-09-20T01:57:28.696Z,1010.42
2022-09-20T01:58:22.347Z,1010.43
2022-09-20T01:59:26.701Z,1010.42
2022-09-20T02:00:22.428Z,1010.42
2022-09-20T02:01:22.193Z,1010.37
2022-09-20T02:02:22.236Z,1010.42
2022-09-20T02:03:22.667Z,1010.46
2022-09-20T02:04:22.624Z,1010.45
2022-09-20T02:05:22.286Z,1010.44
2022-09-20T02:06:23.191Z,1010.43
2022-09-20T02:07:22.370Z,1010.48
2022-09-20T02:08:22.630Z,1010.45
2022-09-20T02:09:22.345Z,1010.42
2022-09-20T02:10:22.163Z,1010.44
2022-09-20T02:11:22.465Z,1010.44
2022-09-20T02:12:22.199Z,1010.44
2022-09-20T02:13:22.502Z,1010.49
2022-09-20T02:14:22.803Z,1010.47
2022-09-20T02:15:22.560Z,1010.5
2022-09-20T02:16:22.747Z,1010.5
2022-09-20T02:17:22.668Z,1010.47
2022-09-20T02:18:23.105Z,1010.49
2022-09-20T02:19:22.413Z,1010.47
2022-09-20T02:20:22.868Z,1010.52
2022-09-20T02:21:22.412Z,1010.51
2022-09-20T02:22:22.652Z,1010.51
2022-09-20T02:23:22.368Z,1010.47
2022-09-20T02:24:22.515Z,1010.51
2022-09-20T02:25:22.309Z,1010.45
2022-09-20T02:26:22.153Z,1010.47
2022-09-20T02:27:22.469Z,1010.46
2022-09-20T02:28:22.283Z,1010.44
2022-09-20T02:29:24.088Z,1010.47
2022-09-20T02:30:22.486Z,1010.52
2022-09-20T02:31:23.273Z,1010.48
2022-09-20T02:32:22.166Z,1010.49
2022-09-20T02:33:22.534Z,1010.49
2022-09-20T02:34:22.802Z,1010.49
2022-09-20T02:35:22.056Z,1010.5
2022-09-20T02:36:22.391Z,1010.51
2022-09-20T02:37:22.663Z,1010.51
2022-09-20T02:38:21.973Z,1010.55
2022-09-20T02:39:22.305Z,1010.52
2022-09-20T02:40:22.767Z,1010.55
2022-09-20T02:41:22.161Z,1010.59
2022-09-20T02:42:22.132Z,1010.57
2022-09-20T02:43:22.134Z,1010.57
2022-09-20T02:44:22.135Z,1010.58
2022-09-20T02:45:22.151Z,1010.56
2022-09-20T02:46:22.216Z,1010.54
2022-09-20T02:47:22.148Z,1010.56
2022-09-20T02:48:22.173Z,1010.55
2022-09-20T02:49:22.155Z,1010.59
2022-09-20T02:50:22.148Z,1010.55
2022-09-20T02:51:22.180Z,1010.53
2022-09-20T02:52:22.135Z,1010.57
2022-09-20T02:53:22.151Z,1010.57
2022-09-20T02:54:22.139Z,1010.59
2022-09-20T02:55:22.141Z,1010.6
2022-09-20T02:56:22.173Z,1010.57
2022-09-20T02:57:22.140Z,1010.58
2022-09-20T02:58:22.150Z,1010.59
2022-09-20T02:59:22.253Z,1010.59
2022-09-20T03:00:22.142Z,1010.59
2022-09-20T03:01:22.222Z,1010.55
2022-09-20T03:02:22.189Z,1010.58
2022-09-20T03:03:22.135Z,1010.55
2022-09-20T03:04:22.128Z,1010.54
2022-09-20T03:05:22.144Z,1010.58
2022-09-20T03:06:22.146Z,1010.59
2022-09-20T03:07:22.133Z,1010.56
2022-09-20T03:08:22.134Z,1010.57
2022-09-20T03:09:22.146Z,1010.57
2022-09-20T03:10:22.137Z,1010.57
2022-09-20T03:11:22.158Z,1010.57
2022-09-20T03:12:22.178Z,1010.57
2022-09-20T03:13:22.159Z,1010.56
2022-09-20T03:14:22.152Z,1010.56
2022-09-20T03:15:22.150Z,1010.57
2022-09-20T03:16:22.187Z,1010.55
2022-09-20T03:17:22.134Z,1010.59
2022-09-20T03:18:22.151Z,1010.59
2022-09-20T03:19:22.147Z,1010.57
2022-09-20T03:20:22.152Z,1010.57
2022-09-20T03:21:22.149Z,1010.57
2022-09-20T03:22:22.139Z,1010.61
2022-09-20T03:23:22.163Z,1010.58
2022-09-20T03:24:22.138Z,1010.59
2022-09-20T03:25:22.143Z,1010.6
2022-09-20T03:26:22.137Z,1010.59
2022-09-20T03:27:22.141Z,1010.56
2022-09-20T03:28:22.126Z,1010.56
2022-09-20T03:29:22.142Z,1010.54
2022-09-20T03:30:22.149Z,1010.53
2022-09-20T03:31:22.159Z,1010.56
2022-09-20T03:32:22.263Z,1010.55
2022-09-20T03:33:22.230Z,1010.57
2022-09-20T03:34:22.155Z,1010.59
2022-09-20T03:35:22.152Z,1010.57
2022-09-20T03:36:22.147Z,1010.54
2022-09-20T03:37:22.148Z,1010.61
2022-09-20T03:38:22.128Z,1010.57
2022-09-20T03:39:22.142Z,1010.54
2022-09-20T03:40:22.161Z,1010.59
2022-09-20T03:41:22.253Z,1010.55
2022-09-20T03:42:22.235Z,1010.55
2022-09-20T03:43:22.470Z,1010.54
2022-09-20T03:44:22.356Z,1010.55
2022-09-20T03:45:22.237Z,1010.56
2022-09-20T03:46:22.405Z,1010.54
2022-09-20T03:47:22.247Z,1010.55
2022-09-20T03:48:22.706Z,1010.57
2022-09-20T03:49:22.251Z,1010.56
2022-09-20T03:50:22.502Z,1010.56
2022-09-20T03:51:22.408Z,1010.55
2022-09-20T03:52:22.330Z,1010.52
2022-09-20T03:53:22.568Z,1010.54
2022-09-20T03:54:22.594Z,1010.51
2022-09-20T03:55:22.895Z,1010.55
2022-09-20T03:56:23.048Z,1010.54
2022-09-20T03:57:22.723Z,1010.53
2022-09-20T03:58:22.162Z,1010.55
2022-09-20T03:59:22.449Z,1010.54
2022-09-20T04:00:22.426Z,1010.53
2022-09-20T04:01:22.186Z,1010.54
2022-09-20T04:02:22.149Z,1010.59
2022-09-20T04:03:22.157Z,1010.59
2022-09-20T04:04:22.150Z,1010.59
2022-09-20T04:05:22.130Z,1010.57
2022-09-20T04:06:22.152Z,1010.59
2022-09-20T04:07:22.220Z,1010.62
2022-09-20T04:08:22.281Z,1010.59
2022-09-20T04:09:22.142Z,1010.59
2022-09-20T04:10:22.301Z,1010.61
2022-09-20T04:11:22.116Z,1010.62
2022-09-20T04:12:22.111Z,1010.61
2022-09-20T04:13:22.132Z,1010.61
2022-09-20T04:14:22.142Z,1010.62
2022-09-20T04:15:22.197Z,1010.6
2022-09-20T04:16:22.156Z,1010.61
2022-09-20T04:17:22.330Z,1010.57
2022-09-20T04:18:22.714Z,1010.58
2022-09-20T04:19:22.298Z,1010.59
2022-09-20T04:20:22.391Z,1010.59
2022-09-20T04:21:22.362Z,1010.58
2022-09-20T04:22:22.199Z,1010.54
2022-09-20T04:23:22.213Z,1010.58
2022-09-20T04:24:22.519Z,1010.62
2022-09-20T04:25:22.552Z,1010.59
2022-09-20T04:26:22.309Z,1010.63
2022-09-20T04:27:22.584Z,1010.63
2022-09-20T04:28:22.804Z,1010.64
2022-09-20T04:29:22.606Z,1010.63
2022-09-20T04:30:22.420Z,1010.61
2022-09-20T04:31:24.892Z,1010.6
2022-09-20T04:32:22.203Z,1010.62
2022-09-20T04:33:22.306Z,1010.63
2022-09-20T04:34:22.403Z,1010.59
2022-09-20T04:35:22.711Z,1010.59
2022-09-20T04:36:22.217Z,1010.62
2022-09-20T04:37:22.515Z,1010.61
2022-09-20T04:38:22.393Z,1010.6
2022-09-20T04:39:22.243Z,1010.63
2022-09-20T04:40:22.227Z,1010.61
2022-09-20T04:41:22.149Z,1010.65
2022-09-20T04:42:22.172Z,1010.61
2022-09-20T04:43:22.484Z,1010.66
2022-09-20T04:44:22.267Z,1010.65
2022-09-20T04:45:22.131Z,1010.65
2022-09-20T04:46:22.417Z,1010.65
2022-09-20T04:47:22.133Z,1010.66
2022-09-20T04:48:22.150Z,1010.69
2022-09-20T04:49:22.177Z,1010.66
2022-09-20T04:50:22.491Z,1010.67
2022-09-20T04:51:22.163Z,1010.68
2022-09-20T04:52:22.141Z,1010.71
2022-09-20T04:53:22.155Z,1010.73
2022-09-20T04:54:22.151Z,1010.74
2022-09-20T04:55:22.204Z,1010.74
2022-09-20T04:56:22.138Z,1010.76
2022-09-20T04:57:22.131Z,1010.8
2022-09-20T04:58:22.134Z,1010.78
2022-09-20T04:59:22.136Z,1010.78
2022-09-20T05:00:22.270Z,1010.83
2022-09-20T05:01:22.226Z,1010.83
2022-09-20T05:02:22.181Z,1010.85
2022-09-20T05:03:22.148Z,1010.85
2022-09-20T05:04:22.236Z,1010.87
2022-09-20T05:05:22.138Z,1010.89
2022-09-20T05:06:22.154Z,1010.85
2022-09-20T05:07:22.135Z,1010.89
2022-09-20T05:08:22.149Z,1010.88
2022-09-20T05:09:22.132Z,1010.9
2022-09-20T05:10:22.145Z,1010.85
2022-09-20T05:11:22.155Z,1010.89
2022-09-20T05:12:22.145Z,1010.9
2022-09-20T05:13:22.149Z,1010.89
2022-09-20T05:14:22.162Z,1010.88
2022-09-20T05:15:22.293Z,1010.89
2022-09-20T05:16:22.170Z,1010.93
2022-09-20T05:17:22.136Z,1010.92
2022-09-20T05:18:22.140Z,1010.94
2022-09-20T05:19:22.146Z,1010.94
2022-09-20T05:20:22.146Z,1010.96
2022-09-20T05:21:22.127Z,1010.96
2022-09-20T05:22:22.128Z,1010.96
2022-09-20T05:23:22.134Z,1010.91
2022-09-20T05:24:22.150Z,1010.9
2022-09-20T05:25:22.318Z,1010.94
2022-09-20T05:26:22.138Z,1010.96
2022-09-20T05:27:22.137Z,1010.94
2022-09-20T05:28:22.399Z,1010.98
2022-09-20T05:29:22.233Z,1010.96
2022-09-20T05:30:22.144Z,1010.96
2022-09-20T05:31:22.318Z,1010.96
2022-09-20T05:32:22.562Z,1011
2022-09-20T05:33:22.859Z,1011.01
2022-09-20T05:34:22.268Z,1010.98
2022-09-20T05:35:22.430Z,1010.98
2022-09-20T05:36:22.277Z,1011
2022-09-20T05:37:22.138Z,1011.02
2022-09-20T05:38:22.358Z,1011.06
2022-09-20T05:39:22.562Z,1011
2022-09-20T05:40:22.935Z,1011.07
2022-09-20T05:41:22.314Z,1011.07
2022-09-20T05:42:22.309Z,1011.11
2022-09-20T05:43:22.369Z,1011.08
2022-09-20T05:44:22.935Z,1011.08
2022-09-20T05:45:22.962Z,1011.04
2022-09-20T05:46:22.165Z,1011.12
2022-09-20T05:47:22.403Z,1011.09
2022-09-20T05:48:22.886Z,1011.07
2022-09-20T05:49:21.920Z,1011.11
2022-09-20T05:50:22.298Z,1011.15
2022-09-20T05:51:22.547Z,1011.16
2022-09-20T05:52:21.998Z,1011.16
2022-09-20T05:53:22.290Z,1011.16
2022-09-20T05:54:22.612Z,1011.13
2022-09-20T05:55:22.686Z,1011.12
2022-09-20T05:56:22.156Z,1011.08
2022-09-20T05:57:22.144Z,1011.16
2022-09-20T05:58:22.177Z,1011.16
2022-09-20T05:59:22.128Z,1011.19
2022-09-20T06:00:22.136Z,1011.19
2022-09-20T06:01:22.171Z,1011.18
2022-09-20T06:02:22.152Z,1011.25
2022-09-20T06:03:22.165Z,1011.24
2022-09-20T06:04:22.144Z,1011.24
2022-09-20T06:05:22.145Z,1011.26
2022-09-20T06:06:22.143Z,1011.24
2022-09-20T06:07:22.157Z,1011.23
2022-09-20T06:08:22.139Z,1011.26
2022-09-20T06:09:22.193Z,1011.27
2022-09-20T06:10:22.184Z,1011.24
2022-09-20T06:11:22.126Z,1011.26
2022-09-20T06:12:22.162Z,1011.26
2022-09-20T06:13:22.142Z,1011.26
2022-09-20T06:14:22.138Z,1011.27
2022-09-20T06:15:22.150Z,1011.25
2022-09-20T06:16:22.168Z,1011.26
2022-09-20T06:17:22.241Z,1011.3
2022-09-20T06:18:22.142Z,1011.29
2022-09-20T06:19:22.147Z,1011.3
2022-09-20T06:20:22.317Z,1011.26
2022-09-20T06:21:22.161Z,1011.28
2022-09-20T06:22:22.140Z,1011.29
2022-09-20T06:23:22.131Z,1011.33
2022-09-20T06:24:22.132Z,1011.3
2022-09-20T06:25:22.145Z,1011.28
2022-09-20T06:26:22.176Z,1011.27
2022-09-20T06:27:22.133Z,1011.26
2022-09-20T06:28:22.150Z,1011.31
2022-09-20T06:29:22.206Z,1011.33
2022-09-20T06:30:22.265Z,1011.34
2022-09-20T06:31:22.175Z,1011.31
2022-09-20T06:32:22.133Z,1011.36
2022-09-20T06:33:22.166Z,1011.36
2022-09-20T06:34:22.137Z,1011.41
2022-09-20T06:35:22.128Z,1011.44
2022-09-20T06:36:22.206Z,1011.41
2022-09-20T06:37:22.139Z,1011.37
2022-09-20T06:38:22.200Z,1011.37
2022-09-20T06:39:22.173Z,1011.39
2022-09-20T06:40:22.198Z,1011.39
2022-09-20T06:41:22.240Z,1011.36
2022-09-20T06:42:28.138Z,1011.42
2022-09-20T06:43:22.231Z,1011.39
2022-09-20T06:44:22.114Z,1011.32
2022-09-20T06:45:22.270Z,1011.36
2022-09-20T06:46:22.146Z,1011.36
2022-09-20T06:47:22.323Z,1011.39
2022-09-20T06:48:22.622Z,1011.4
2022-09-20T06:49:22.474Z,1011.44
2022-09-20T06:50:22.186Z,1011.42
2022-09-20T06:51:22.463Z,1011.43
2022-09-20T06:52:22.389Z,1011.43
2022-09-20T06:53:22.984Z,1011.43
2022-09-20T06:54:22.465Z,1011.44
2022-09-20T06:55:28.952Z,1011.4
2022-09-20T06:56:23.057Z,1011.45
2022-09-20T06:57:22.318Z,1011.41
2022-09-20T06:58:22.529Z,1011.43
2022-09-20T06:59:22.888Z,1011.44
2022-09-20T07:00:22.624Z,1011.42
2022-09-20T07:01:30.781Z,1011.45
2022-09-20T07:02:22.522Z,1011.42
2022-09-20T07:03:22.750Z,1011.48
2022-09-20T07:04:22.485Z,1011.5
2022-09-20T07:05:22.814Z,1011.49
2022-09-20T07:06:22.557Z,1011.49
2022-09-20T07:07:22.670Z,1011.48
2022-09-20T07:08:22.280Z,1011.5
2022-09-20T07:09:22.147Z,1011.54
2022-09-20T07:10:22.290Z,1011.51
2022-09-20T07:11:22.180Z,1011.49
2022-09-20T07:12:22.533Z,1011.53
2022-09-20T07:13:22.215Z,1011.5
2022-09-20T07:14:22.516Z,1011.48
2022-09-20T07:15:22.163Z,1011.51
2022-09-20T07:16:22.179Z,1011.52
2022-09-20T07:17:22.158Z,1011.54
2022-09-20T07:18:22.138Z,1011.56
2022-09-20T07:19:22.138Z,1011.56
2022-09-20T07:20:25.398Z,1011.59
2022-09-20T07:21:22.140Z,1011.61
2022-09-20T07:22:22.137Z,1011.62
2022-09-20T07:23:22.148Z,1011.61
2022-09-20T07:24:22.140Z,1011.61
2022-09-20T07:25:22.145Z,1011.66
2022-09-20T07:26:22.147Z,1011.65
2022-09-20T07:27:22.465Z,1011.67
2022-09-20T07:28:22.154Z,1011.66
2022-09-20T07:29:22.131Z,1011.64
2022-09-20T07:30:22.138Z,1011.71
2022-09-20T07:31:22.167Z,1011.71
2022-09-20T07:32:22.153Z,1011.69
2022-09-20T07:33:22.134Z,1011.69
2022-09-20T07:34:22.154Z,1011.73
2022-09-20T07:35:22.131Z,1011.68
2022-09-20T07:36:22.152Z,1011.67
2022-09-20T07:37:22.142Z,1011.67
2022-09-20T07:38:22.151Z,1011.68
2022-09-20T07:39:22.146Z,1011.7
2022-09-20T07:40:22.216Z,1011.72
2022-09-20T07:41:22.133Z,1011.77
2022-09-20T07:42:22.141Z,1011.74
2022-09-20T07:43:22.131Z,1011.75
2022-09-20T07:44:22.226Z,1011.73
2022-09-20T07:45:22.136Z,1011.74
2022-09-20T07:46:22.145Z,1011.79
2022-09-20T07:47:22.137Z,1011.79
2022-09-20T07:48:22.193Z,1011.78
2022-09-20T07:49:22.148Z,1011.78
2022-09-20T07:50:22.280Z,1011.76
2022-09-20T07:51:22.109Z,1011.78
2022-09-20T07:52:22.229Z,1011.79
2022-09-20T07:53:22.128Z,1011.73
2022-09-20T07:54:22.137Z,1011.75
2022-09-20T07:55:22.375Z,1011.76
2022-09-20T07:56:22.129Z,1011.75
2022-09-20T07:57:22.220Z,1011.77
2022-09-20T07:58:22.228Z,1011.74
2022-09-20T07:59:22.236Z,1011.76
2022-09-20T08:00:22.119Z,1011.76
2022-09-20T08:01:22.435Z,1011.77
2022-09-20T08:02:22.613Z,1011.78
2022-09-20T08:03:22.138Z,1011.75
2022-09-20T08:04:22.140Z,1011.76
2022-09-20T08:05:22.340Z,1011.77
2022-09-20T08:06:22.162Z,1011.84
2022-09-20T08:07:22.151Z,1011.85
2022-09-20T08:08:22.149Z,1011.82
2022-09-20T08:09:22.138Z,1011.83
2022-09-20T08:10:22.282Z,1011.83
2022-09-20T08:11:22.142Z,1011.84
2022-09-20T08:14:22.259Z,1011.9
2022-09-20T08:15:22.143Z,1011.9
2022-09-20T08:16:22.159Z,1011.82
2022-09-20T08:17:22.142Z,1011.84
2022-09-20T08:18:22.147Z,1011.86
2022-09-20T08:19:22.153Z,1011.82
2022-09-20T08:20:22.138Z,1011.87
2022-09-20T08:21:22.147Z,1011.84
2022-09-20T08:22:22.164Z,1011.87
2022-09-20T08:23:26.149Z,1011.87
2022-09-20T08:24:22.147Z,1011.89
2022-09-20T08:25:22.166Z,1011.84
2022-09-20T08:26:22.148Z,1011.84
2022-09-20T08:27:22.143Z,1011.85
2022-09-20T08:28:22.143Z,1011.83
2022-09-20T08:29:22.151Z,1011.83
2022-09-20T08:30:28.172Z,1011.85
2022-09-20T08:31:22.228Z,1011.87
2022-09-20T08:32:22.163Z,1011.86
2022-09-20T08:33:22.228Z,1011.84
2022-09-20T08:34:22.133Z,1011.85
2022-09-20T08:35:22.128Z,1011.84
2022-09-20T08:36:22.131Z,1011.81
2022-09-20T08:37:22.217Z,1011.86
2022-09-20T08:39:58.091Z,1011.79
2022-09-20T08:40:22.173Z,1011.8
2022-09-20T08:41:22.181Z,1011.84
2022-09-20T08:42:22.430Z,1011.86
2022-09-20T08:43:25.249Z,1011.83
2022-09-20T08:44:22.336Z,1011.83
2022-09-20T08:45:35.220Z,1011.88
2022-09-20T08:46:26.549Z,1011.88
2022-09-20T08:47:22.118Z,1011.87
2022-09-20T08:48:22.435Z,1011.88
2022-09-20T08:49:22.340Z,1011.83
2022-09-20T08:50:22.132Z,1011.83
2022-09-20T08:51:27.396Z,1011.89
2022-09-20T08:52:22.409Z,1011.86
2022-09-20T08:53:24.542Z,1011.77
2022-09-20T08:54:22.224Z,1011.83
2022-09-20T08:55:22.508Z,1011.85
2022-09-20T08:56:22.203Z,1011.85
2022-09-20T08:57:22.328Z,1011.85
2022-09-20T08:58:23.775Z,1011.83
2022-09-20T08:59:23.887Z,1011.86
2022-09-20T09:00:22.640Z,1011.81
2022-09-20T09:01:21.903Z,1011.83
2022-09-20T09:02:22.306Z,1011.82
2022-09-20T09:03:22.566Z,1011.81
2022-09-20T09:04:22.831Z,1011.81
2022-09-20T09:05:22.180Z,1011.85
2022-09-20T09:06:22.469Z,1011.84
2022-09-20T09:07:22.794Z,1011.8
2022-09-20T09:08:22.495Z,1011.85
2022-09-20T09:09:22.454Z,1011.87
2022-09-20T09:10:22.595Z,1011.84
2022-09-20T09:11:22.141Z,1011.84
2022-09-20T09:12:22.133Z,1011.83
2022-09-20T09:13:22.135Z,1011.84
2022-09-20T09:14:22.142Z,1011.79
2022-09-20T09:15:22.176Z,1011.79
2022-09-20T09:16:34.555Z,1011.74
2022-09-20T09:17:27.258Z,1011.8
2022-09-20T09:18:22.241Z,1011.8
2022-09-20T09:19:22.269Z,1011.79
2022-09-20T09:20:22.135Z,1011.79
2022-09-20T09:21:22.131Z,1011.82
2022-09-20T09:22:22.144Z,1011.79
2022-09-20T09:23:22.139Z,1011.79
2022-09-20T09:24:22.145Z,1011.8
2022-09-20T09:25:22.177Z,1011.8
2022-09-20T09:26:22.254Z,1011.79
2022-09-20T09:27:22.208Z,1011.76
2022-09-20T09:28:22.180Z,1011.8
2022-09-20T09:29:22.145Z,1011.8
2022-09-20T09:30:22.128Z,1011.84
2022-09-20T09:31:22.181Z,1011.88
2022-09-20T09:32:22.173Z,1011.77
2022-09-20T09:33:22.132Z,1011.79
2022-09-20T09:34:22.132Z,1011.81
2022-09-20T09:35:22.165Z,1011.77
2022-09-20T09:36:22.131Z,1011.78
2022-09-20T09:37:28.391Z,1011.75
2022-09-20T09:38:22.140Z,1011.74
2022-09-20T09:39:22.138Z,1011.76
2022-09-20T09:40:22.341Z,1011.8
2022-09-20T09:41:22.135Z,1011.75
2022-09-20T09:42:22.131Z,1011.78
2022-09-20T09:43:22.171Z,1011.77
2022-09-20T09:44:22.145Z,1011.79
2022-09-20T09:45:22.137Z,1011.79
2022-09-20T09:46:22.163Z,1011.77
2022-09-20T09:47:22.122Z,1011.81
2022-09-20T09:48:22.205Z,1011.79
2022-09-20T09:49:22.159Z,1011.78
2022-09-20T09:50:22.117Z,1011.79
2022-09-20T09:51:22.265Z,1011.8
2022-09-20T09:52:22.326Z,1011.8
2022-09-20T09:53:22.610Z,1011.81
2022-09-20T09:54:22.288Z,1011.78
2022-09-20T09:55:22.369Z,1011.77
2022-09-20T09:56:22.665Z,1011.74
2022-09-20T09:57:22.340Z,1011.8
2022-09-20T09:58:23.278Z,1011.8
2022-09-20T09:59:22.509Z,1011.76
2022-09-20T10:00:24.860Z,1011.79
2022-09-20T10:01:22.677Z,1011.75
2022-09-20T10:02:22.933Z,1011.81
2022-09-20T10:03:23.287Z,1011.78
2022-09-20T10:04:23.635Z,1011.76
2022-09-20T10:05:22.182Z,1011.79
2022-09-20T10:06:22.439Z,1011.73
2022-09-20T10:07:22.703Z,1011.74
2022-09-20T10:08:22.276Z,1011.72
2022-09-20T10:09:22.302Z,1011.75
2022-09-20T10:10:22.213Z,1011.74
2022-09-20T10:11:22.437Z,1011.69
2022-09-20T10:12:22.588Z,1011.71
2022-09-20T10:13:22.341Z,1011.67
2022-09-20T10:14:22.360Z,1011.69
2022-09-20T10:15:22.471Z,1011.67
2022-09-20T10:16:22.711Z,1011.66
2022-09-20T10:17:22.250Z,1011.68
2022-09-20T10:18:22.545Z,1011.63
2022-09-20T10:19:25.682Z,1011.69
2022-09-20T10:20:22.512Z,1011.72
2022-09-20T10:21:22.136Z,1011.72
2022-09-20T10:22:22.421Z,1011.74
2022-09-20T10:23:51.841Z,1011.76
2022-09-20T10:24:22.469Z,1011.79
2022-09-20T10:25:22.370Z,1011.79
2022-09-20T10:26:22.257Z,1011.81
2022-09-20T10:27:22.454Z,1011.77
2022-09-20T10:28:22.254Z,1011.81
2022-09-20T10:29:22.451Z,1011.82
2022-09-20T10:30:22.149Z,1011.79
2022-09-20T10:31:28.832Z,1011.81
2022-09-20T10:32:22.156Z,1011.81
2022-09-20T10:33:22.139Z,1011.79
2022-09-20T10:34:22.203Z,1011.81
2022-09-20T10:35:22.157Z,1011.78
2022-09-20T10:36:22.131Z,1011.79
2022-09-20T10:37:22.167Z,1011.79
2022-09-20T10:38:22.133Z,1011.77
2022-09-20T10:39:22.142Z,1011.76
2022-09-20T10:40:22.201Z,1011.77
2022-09-20T10:41:22.147Z,1011.71
2022-09-20T10:42:22.297Z,1011.75
2022-09-20T10:43:22.285Z,1011.76
2022-09-20T10:44:22.147Z,1011.75
2022-09-20T10:45:59.414Z,1011.77
2022-09-20T10:46:31.647Z,1011.77
2022-09-20T10:47:22.179Z,1011.78
2022-09-20T10:48:22.144Z,1011.77
2022-09-20T10:49:22.133Z,1011.8
2022-09-20T10:50:22.137Z,1011.78
2022-09-20T10:51:22.148Z,1011.79
2022-09-20T10:52:22.141Z,1011.75
2022-09-20T10:53:22.150Z,1011.79
2022-09-20T10:54:22.150Z,1011.72
2022-09-20T10:55:22.140Z,1011.75
2022-09-20T10:56:22.322Z,1011.74
2022-09-20T10:57:22.133Z,1011.72
2022-09-20T10:58:22.142Z,1011.72
2022-09-20T10:59:22.147Z,1011.73
2022-09-20T11:00:22.142Z,1011.75
2022-09-20T11:01:22.211Z,1011.78
2022-09-20T11:02:22.242Z,1011.75
2022-09-20T11:03:22.148Z,1011.71
2022-09-20T11:04:22.156Z,1011.75
2022-09-20T11:05:22.221Z,1011.69
2022-09-20T11:06:22.291Z,1011.73
2022-09-20T11:07:22.274Z,1011.72
2022-09-20T11:08:22.164Z,1011.72
2022-09-20T11:09:22.395Z,1011.75
2022-09-20T11:10:22.309Z,1011.79
2022-09-20T11:11:22.234Z,1011.76
2022-09-20T11:12:22.249Z,1011.77
2022-09-20T11:13:22.257Z,1011.77
2022-09-20T11:14:22.468Z,1011.75
2022-09-20T11:15:22.244Z,1011.75
2022-09-20T11:16:22.357Z,1011.77
2022-09-20T11:17:22.371Z,1011.71
2022-09-20T11:18:22.262Z,1011.72
2022-09-20T11:19:22.339Z,1011.71
2022-09-20T11:20:22.259Z,1011.77
2022-09-20T11:21:22.260Z,1011.78
2022-09-20T11:22:22.255Z,1011.75
2022-09-20T11:23:22.269Z,1011.76
2022-09-20T11:24:22.299Z,1011.77
2022-09-20T11:25:31.289Z,1011.76
2022-09-20T11:26:22.291Z,1011.71
2022-09-20T11:27:22.272Z,1011.75
2022-09-20T11:28:22.506Z,1011.73
2022-09-20T11:29:22.287Z,1011.72
2022-09-20T11:30:22.274Z,1011.75
2022-09-20T11:31:22.314Z,1011.72
2022-09-20T11:32:22.273Z,1011.72
2022-09-20T11:33:22.297Z,1011.72
2022-09-20T11:34:22.304Z,1011.71
2022-09-20T11:35:22.306Z,1011.72
2022-09-20T11:36:22.164Z,1011.75
2022-09-20T11:37:22.211Z,1011.76
2022-09-20T11:38:22.309Z,1011.74
2022-09-20T11:39:22.465Z,1011.72
2022-09-20T11:40:22.335Z,1011.74
2022-09-20T11:41:22.279Z,1011.76
2022-09-20T11:42:22.270Z,1011.72
2022-09-20T11:43:22.326Z,1011.77
2022-09-20T11:44:22.285Z,1011.79
2022-09-20T11:45:28.404Z,1011.74
2022-09-20T11:46:22.601Z,1011.78
2022-09-20T11:47:53.145Z,1011.73
2022-09-20T11:48:22.416Z,1011.66
2022-09-20T11:49:22.448Z,1011.72
2022-09-20T11:50:22.317Z,1011.75
2022-09-20T11:51:22.227Z,1011.72
2022-09-20T11:52:22.418Z,1011.72
2022-09-20T11:53:22.292Z,1011.74
2022-09-20T11:54:22.350Z,1011.78
2022-09-20T11:55:22.617Z,1011.76
2022-09-20T11:56:22.654Z,1011.79
2022-09-20T11:57:22.670Z,1011.77
2022-09-20T11:58:22.611Z,1011.78
2022-09-20T11:59:22.768Z,1011.76
2022-09-20T12:00:23.140Z,1011.78
2022-09-20T12:01:28.401Z,1011.78
2022-09-20T12:02:23.426Z,1011.76
2022-09-20T12:03:22.923Z,1011.73
2022-09-20T12:04:33.135Z,1011.76
2022-09-20T12:05:23.105Z,1011.71
2022-09-20T12:06:22.806Z,1011.69
2022-09-20T12:07:22.409Z,1011.74
2022-09-20T12:08:22.696Z,1011.74
2022-09-20T12:09:22.973Z,1011.75
2022-09-20T12:10:22.567Z,1011.73